Time;durP1;ratioP1;P1;durP2;ratioP2;P2;SDS_P1;SDS_P2;PMS_P1;PMS_P2;Temp;Humidity;BMP_temperature;BMP_pressure;BME280_temperature;BME280_humidity;BME280_pressure;Samples;Min_cycle;Max_cycle;Signal;HPM_P1;HPM_P2
2023/09/21 00:00:45;;;;;;;3.60;1.87;;;;;;;19.92;100.00;101483.81;2106986;28;20251;-64
2023/09/21 00:01:45;;;;;;;2.97;1.80;;;;;;;19.91;100.00;101485.84;2106882;28;20409;-64
2023/09/21 00:02:56;;;;;;;3.40;2.07;;;;;;;19.90;100.00;101491.97;2106978;28;20175;-64
2023/09/21 00:03:57;;;;;;;3.60;2.13;;;;;;;19.78;100.00;101481.69;2107030;28;20171;-64
2023/09/21 00:04:58;;;;;;;3.27;1.90;;;;;;;19.76;100.00;101493.41;2106983;28;20496;-64
2023/09/21 00:05:58;;;;;;;4.80;2.30;;;;;;;19.79;100.00;101491.69;2106978;28;20183;-64
2023/09/21 00:07:00;;;;;;;2.40;1.73;;;;;;;19.81;100.00;101495.56;2106819;28;20420;-64
2023/09/21 00:08:00;;;;;;;3.73;2.13;;;;;;;19.86;100.00;101491.34;2106875;28;20205;-64
2023/09/21 00:09:01;;;;;;;3.13;1.90;;;;;;;19.86;100.00;101497.75;2106969;28;20291;-64
2023/09/21 00:10:02;;;;;;;4.93;2.10;;;;;;;19.90;100.00;101497.59;2106833;28;20175;-64
2023/09/21 00:11:05;;;;;;;3.73;1.63;;;;;;;19.89;100.00;101501.63;2106907;28;20171;-64
2023/09/21 00:12:09;;;;;;;5.47;1.77;;;;;;;19.85;100.00;101498.25;2106909;28;20228;-64
2023/09/21 00:13:10;;;;;;;4.13;2.13;;;;;;;19.83;100.00;101493.09;2106890;28;20290;-64
2023/09/21 00:14:12;;;;;;;3.23;2.03;;;;;;;19.40;100.00;101428.09;2106944;28;20420;-64
2023/09/21 00:15:21;;;;;;;3.27;1.60;;;;;;;19.37;100.00;101421.41;2106878;28;20419;-64
2023/09/21 00:16:25;;;;;;;4.10;1.73;;;;;;;19.89;100.00;101493.19;2106873;28;20396;-64
2023/09/21 00:17:27;;;;;;;4.70;1.97;;;;;;;19.88;100.00;101488.84;2106774;28;20193;-64
2023/09/21 00:18:29;;;;;;;4.70;1.83;;;;;;;19.91;100.00;101494.28;2100249;28;20486;-64
2023/09/21 00:19:30;;;;;;;4.40;1.87;;;;;;;19.93;100.00;101496.63;2098497;28;20467;-64
2023/09/21 00:20:36;;;;;;;5.53;1.70;;;;;;;19.96;100.00;101493.63;2098459;28;20559;-64
2023/09/21 00:21:37;;;;;;;4.47;2.30;;;;;;;20.00;100.00;101499.13;2098517;28;20705;-64
2023/09/21 00:22:38;;;;;;;4.30;1.80;;;;;;;20.03;100.00;101495.31;2098526;28;20418;-64
2023/09/21 00:23:38;;;;;;;3.63;1.70;;;;;;;20.05;100.00;101487.22;2098431;28;20172;-64
2023/09/21 00:24:39;;;;;;;5.57;1.93;;;;;;;20.07;100.00;101496.72;2098310;28;20611;-64
2023/09/21 00:25:40;;;;;;;4.07;1.97;;;;;;;20.09;100.00;101493.44;2098570;28;20164;-64
2023/09/21 00:26:41;;;;;;;3.73;1.50;;;;;;;20.11;100.00;101499.41;2098459;28;20171;-64
2023/09/21 00:27:41;;;;;;;3.17;1.70;;;;;;;20.01;100.00;101493.00;2105048;28;20423;-64
2023/09/21 00:28:43;;;;;;;3.50;1.70;;;;;;;20.02;100.00;101496.59;2106774;28;20179;-64
2023/09/21 00:29:46;;;;;;;4.17;1.87;;;;;;;20.02;100.00;101503.00;2102120;28;20229;-64
2023/09/21 00:30:48;;;;;;;3.80;1.67;;;;;;;20.02;100.00;101491.75;2098289;28;20417;-64
2023/09/21 00:31:49;;;;;;;3.80;2.07;;;;;;;20.05;100.00;101490.03;2101124;28;20270;-64
2023/09/21 00:32:49;;;;;;;2.53;1.67;;;;;;;19.90;100.00;101461.78;2106749;28;20412;-64
2023/09/21 00:33:50;;;;;;;4.43;1.77;;;;;;;20.11;100.00;101485.31;2106498;28;20318;-64
2023/09/21 00:34:52;;;;;;;3.67;1.60;;;;;;;20.11;100.00;101488.13;2106769;28;20178;-64
2023/09/21 00:35:53;;;;;;;3.67;1.70;;;;;;;19.88;100.00;101446.63;2106673;28;20210;-64
2023/09/21 00:36:53;;;;;;;2.43;1.40;;;;;;;20.15;100.00;101486.69;2106779;28;20178;-64
2023/09/21 00:37:53;;;;;;;2.37;1.30;;;;;;;20.16;100.00;101493.88;2106715;28;20202;-64
2023/09/21 00:38:55;;;;;;;2.50;1.70;;;;;;;19.53;100.00;101386.50;2106675;28;20167;-64
2023/09/21 00:39:55;;;;;;;3.43;1.53;;;;;;;20.18;100.00;101504.66;2106665;28;20173;-64
2023/09/21 00:40:58;;;;;;;2.57;1.50;;;;;;;20.20;100.00;101488.84;2106661;28;20214;-64
2023/09/21 00:41:58;;;;;;;2.70;1.70;;;;;;;20.21;100.00;101495.28;2104598;28;20270;-64
2023/09/21 00:43:01;;;;;;;3.97;1.67;;;;;;;20.17;100.00;101495.44;2106646;28;20179;-64
2023/09/21 00:44:09;;;;;;;2.53;1.67;;;;;;;20.16;100.00;101487.50;2106593;28;20185;-64
2023/09/21 00:45:10;;;;;;;2.10;1.20;;;;;;;20.16;100.00;101487.50;2098206;28;20766;-64
2023/09/21 00:46:11;;;;;;;2.30;1.40;;;;;;;20.16;100.00;101490.31;2097578;28;20421;-64
2023/09/21 00:47:13;;;;;;;3.57;1.50;;;;;;;20.14;100.00;101489.97;2104120;28;20995;-64
2023/09/21 00:48:20;;;;;;;2.40;1.53;;;;;;;20.01;100.00;101467.66;2106592;28;20567;-64
2023/09/21 00:49:21;;;;;;;2.40;1.50;;;;;;;20.20;100.00;101488.06;2106607;28;20808;-64
2023/09/21 00:50:22;;;;;;;3.33;1.87;;;;;;;20.20;100.00;101491.66;2106714;28;20492;-64
2023/09/21 00:51:23;;;;;;;5.87;1.47;;;;;;;20.20;100.00;101488.84;2106533;28;20577;-64
2023/09/21 00:52:24;;;;;;;3.10;1.43;;;;;;;20.21;100.00;101490.41;2106628;28;20409;-64
2023/09/21 00:53:27;;;;;;;3.00;1.67;;;;;;;20.21;100.00;101496.03;2106619;28;20198;-64
2023/09/21 00:54:27;;;;;;;2.87;1.43;;;;;;;20.19;100.00;101490.13;2106624;28;20174;-64
2023/09/21 00:55:30;;;;;;;2.83;1.10;;;;;;;20.20;100.00;101488.06;2106424;28;20435;-64
2023/09/21 00:56:31;;;;;;;2.80;1.50;;;;;;;20.21;100.00;101495.28;2106678;28;20246;-64
2023/09/21 00:57:32;;;;;;;3.07;1.40;;;;;;;20.22;100.00;101483.53;2106627;28;20420;-64
2023/09/21 00:58:36;;;;;;;2.80;1.40;;;;;;;20.23;100.00;101487.91;2106560;28;20167;-64
2023/09/21 00:59:39;;;;;;;3.33;1.43;;;;;;;20.26;100.00;101489.75;2106464;28;20930;-64
2023/09/21 01:00:41;;;;;;;2.60;1.43;;;;;;;20.11;100.00;101474.06;2106563;28;20409;-64
2023/09/21 01:01:41;;;;;;;3.30;1.50;;;;;;;20.24;100.00;101495.09;2106610;28;20417;-64
2023/09/21 01:02:43;;;;;;;3.43;1.70;;;;;;;20.21;100.00;101492.47;2106539;28;20424;-64
2023/09/21 01:03:44;;;;;;;4.30;1.67;;;;;;;20.18;100.00;101488.56;2106452;28;20671;-64
2023/09/21 01:04:44;;;;;;;5.43;1.67;;;;;;;20.17;100.00;101489.03;2106437;28;20825;-64
2023/09/21 01:05:46;;;;;;;2.53;1.27;;;;;;;20.15;100.00;101486.69;2106424;28;20177;-64
2023/09/21 01:06:48;;;;;;;3.07;1.60;;;;;;;19.99;100.00;101467.38;2106551;28;20250;-64
2023/09/21 01:07:50;;;;;;;3.63;1.90;;;;;;;20.14;100.00;101487.97;2106414;28;20413;-64
2023/09/21 01:08:51;;;;;;;5.67;1.57;;;;;;;20.11;100.00;101480.47;2106541;28;20173;-64
2023/09/21 01:09:52;;;;;;;3.70;1.47;;;;;;;20.11;100.00;101486.09;2106396;28;20182;-64
2023/09/21 01:10:54;;;;;;;1.70;1.33;;;;;;;20.11;100.00;101491.72;2106071;28;20259;-64
2023/09/21 01:11:59;;;;;;;2.20;1.40;;;;;;;20.12;100.00;101484.81;2106407;28;20171;-64
2023/09/21 01:13:00;;;;;;;3.50;1.73;;;;;;;19.98;100.00;101465.81;2106533;28;20405;-63
2023/09/21 01:14:00;;;;;;;5.73;2.10;;;;;;;20.10;100.00;101492.97;2106478;28;20179;-64
2023/09/21 01:15:05;;;;;;;4.97;1.70;;;;;;;20.09;100.00;101487.81;2106428;28;20258;-64
2023/09/21 01:16:06;;;;;;;3.23;1.90;;;;;;;20.05;100.00;101476.72;2106471;28;20167;-64
2023/09/21 01:17:07;;;;;;;3.40;1.63;;;;;;;20.09;100.00;101497.06;2106387;28;20674;-64
2023/09/21 01:18:07;;;;;;;3.67;1.83;;;;;;;20.06;100.00;101485.94;2106487;28;20216;-64
2023/09/21 01:19:09;;;;;;;2.70;1.63;;;;;;;20.04;100.00;101491.25;2101894;28;20191;-64
2023/09/21 01:20:23;;;;;;;3.33;1.73;;;;;;;20.05;100.00;101496.41;2098167;28;20179;-64
2023/09/21 01:21:40;;;;;;;3.67;1.97;;;;;;;20.05;100.00;101487.97;2098112;28;20179;-64
2023/09/21 01:22:44;;;;;;;4.17;1.77;;;;;;;20.02;100.00;101488.94;2101923;28;20225;-64
2023/09/21 01:23:46;;;;;;;3.63;1.73;;;;;;;19.54;100.00;101422.56;2105822;28;20651;-64
2023/09/21 01:24:47;;;;;;;3.20;1.70;;;;;;;19.99;100.00;101498.31;2106348;28;21033;-64
2023/09/21 01:25:52;;;;;;;5.47;2.03;;;;;;;19.99;100.00;101498.31;2106122;28;20792;-64
2023/09/21 01:26:53;;;;;;;3.40;2.13;;;;;;;19.97;100.00;101494.44;2106589;28;20156;-64
2023/09/21 01:27:53;;;;;;;3.80;2.10;;;;;;;19.96;100.00;101499.25;2106372;28;20558;-64
2023/09/21 01:28:57;;;;;;;4.47;1.80;;;;;;;19.96;100.00;101490.81;2106320;28;20258;-64
2023/09/21 01:29:57;;;;;;;3.33;1.93;;;;;;;19.86;100.00;101475.25;2106353;28;20194;-64
2023/09/21 01:30:58;;;;;;;2.30;1.30;;;;;;;19.93;100.00;101486.16;2106238;28;20451;-64
2023/09/21 01:31:58;;;;;;;3.20;2.00;;;;;;;19.94;100.00;101484.13;2106443;28;20606;-63
2023/09/21 01:33:03;;;;;;;3.50;1.80;;;;;;;19.93;100.00;101479.75;2106250;28;20221;-63
2023/09/21 01:34:04;;;;;;;2.57;1.60;;;;;;;19.90;100.00;101487.09;2106409;28;20163;-64
2023/09/21 01:35:06;;;;;;;3.77;1.80;;;;;;;19.90;100.00;101477.91;2106342;28;20406;-64
2023/09/21 01:36:08;;;;;;;2.30;1.63;;;;;;;19.86;100.00;101477.28;2106249;28;20183;-64
2023/09/21 01:37:09;;;;;;;3.60;1.30;;;;;;;19.42;100.00;101415.13;2106323;28;20417;-64
2023/09/21 01:38:10;;;;;;;2.37;1.30;;;;;;;19.44;100.00;101415.44;2106313;28;20921;-64
2023/09/21 01:39:10;;;;;;;4.50;1.60;;;;;;;19.83;100.00;101479.03;2106391;28;20196;-64
2023/09/21 01:40:16;;;;;;;4.37;1.90;;;;;;;19.40;100.00;101411.25;2106313;28;20982;-64
2023/09/21 01:41:19;;;;;;;2.20;1.60;;;;;;;19.46;100.00;101421.38;2106371;28;20187;-64
2023/09/21 01:42:20;;;;;;;2.87;1.67;;;;;;;19.76;100.00;101476.53;2106180;28;20411;-64
2023/09/21 01:43:21;;;;;;;8.33;2.10;;;;;;;19.71;100.00;101476.41;2098167;28;20469;-64
2023/09/21 01:44:21;;;;;;;2.80;1.40;;;;;;;19.66;100.00;101477.06;2097895;28;20210;-64
2023/09/21 01:45:22;;;;;;;3.20;1.77;;;;;;;19.64;100.00;101477.53;2103573;28;20193;-64
2023/09/21 01:46:22;;;;;;;3.50;1.60;;;;;;;19.15;100.00;101400.38;2106206;28;20179;-64
2023/09/21 01:47:23;;;;;;;2.23;1.63;;;;;;;19.60;100.00;101470.53;2106389;28;20202;-64
2023/09/21 01:48:23;;;;;;;3.23;1.33;;;;;;;19.61;100.00;101480.50;2106078;28;20167;-64
2023/09/21 01:49:24;;;;;;;2.53;1.43;;;;;;;19.58;100.00;101473.81;2106290;28;20175;-64
2023/09/21 01:50:25;;;;;;;3.70;1.57;;;;;;;19.62;100.00;101477.22;2106249;28;20254;-64
2023/09/21 01:51:26;;;;;;;3.43;1.47;;;;;;;19.61;100.00;101480.50;2100583;28;20194;-64
2023/09/21 01:52:27;;;;;;;2.73;1.60;;;;;;;19.57;100.00;101477.88;2097897;28;20453;-64
2023/09/21 01:53:27;;;;;;;2.50;1.50;;;;;;;19.60;100.00;101481.78;2097974;28;20168;-64
2023/09/21 01:54:28;;;;;;;4.20;1.40;;;;;;;19.58;100.00;101476.63;2098973;28;20474;-64
2023/09/21 01:55:28;;;;;;;5.07;1.47;;;;;;;19.58;100.00;101479.44;2106293;28;20263;-64
2023/09/21 01:56:29;;;;;;;4.13;1.67;;;;;;;19.58;100.00;101475.81;2106164;28;20704;-64
2023/09/21 01:57:29;;;;;;;3.43;1.53;;;;;;;19.56;100.00;101472.72;2106210;28;20171;-64
2023/09/21 01:58:30;;;;;;;3.17;1.20;;;;;;;19.56;100.00;101478.34;2106214;28;20186;-64
2023/09/21 01:59:31;;;;;;;2.37;1.53;;;;;;;19.53;100.00;101471.63;2106216;28;20192;-64
2023/09/21 02:00:35;;;;;;;2.87;1.60;;;;;;;19.50;100.00;101469.75;2106331;28;20253;-64
2023/09/21 02:01:36;;;;;;;4.17;1.50;;;;;;;19.47;100.00;101470.72;2106202;28;20428;-64
2023/09/21 02:02:36;;;;;;;2.53;1.50;;;;;;;19.42;100.00;101451.69;2106302;28;21017;-64
2023/09/21 02:03:36;;;;;;;2.40;1.53;;;;;;;19.19;100.00;101418.59;2106204;28;20202;-64
2023/09/21 02:04:37;;;;;;;2.67;1.83;;;;;;;19.51;100.00;101474.16;2106211;28;20199;-64
2023/09/21 02:05:41;;;;;;;9.50;1.70;;;;;;;19.28;100.00;101435.47;2106236;28;20174;-64
2023/09/21 02:06:41;;;;;;;1.93;1.27;;;;;;;19.48;100.00;101468.66;2106313;28;20687;-64
2023/09/21 02:07:43;;;;;;;2.87;1.50;;;;;;;19.49;100.00;101470.25;2106166;28;20408;-64
2023/09/21 02:08:44;;;;;;;3.60;1.80;;;;;;;19.49;100.00;101462.56;2106260;28;20167;-64
2023/09/21 02:09:44;;;;;;;6.50;1.90;;;;;;;19.51;100.00;101473.34;2106221;28;20422;-63
2023/09/21 02:10:49;;;;;;;2.30;1.30;;;;;;;19.50;100.00;101463.38;2106116;28;20602;-64
2023/09/21 02:11:50;;;;;;;4.00;1.73;;;;;;;19.51;100.00;101468.53;2106268;28;20643;-64
2023/09/21 02:12:56;;;;;;;7.73;1.93;;;;;;;19.52;100.00;101466.47;2105245;28;20830;-64
2023/09/21 02:13:57;;;;;;;4.80;2.13;;;;;;;19.52;100.00;101464.47;2097419;28;20171;-64
2023/09/21 02:14:59;;;;;;;5.90;2.27;;;;;;;19.54;100.00;101464.75;2097937;28;20915;-64
2023/09/21 02:16:00;;;;;;;5.50;1.77;;;;;;;19.55;100.00;101463.50;2105301;28;20203;-64
2023/09/21 02:17:00;;;;;;;3.33;1.60;;;;;;;19.56;100.00;101453.03;2106192;28;20417;-64
2023/09/21 02:18:02;;;;;;;2.20;1.30;;;;;;;19.54;100.00;101459.13;2106215;28;20167;-64
2023/09/21 02:19:03;;;;;;;2.63;1.60;;;;;;;19.51;100.00;101456.50;2106175;28;20179;-64
2023/09/21 02:20:12;;;;;;;4.43;1.60;;;;;;;19.51;100.00;101454.47;2106176;28;20448;-64
2023/09/21 02:21:14;;;;;;;3.43;1.73;;;;;;;19.47;100.00;101442.59;2106338;28;20174;-64
2023/09/21 02:22:15;;;;;;;5.00;1.80;;;;;;;19.51;100.00;101450.88;2104184;28;20974;-64
2023/09/21 02:23:15;;;;;;;2.97;1.90;;;;;;;19.13;100.00;101386.03;2099204;28;20842;-64
2023/09/21 02:24:16;;;;;;;3.90;1.70;;;;;;;19.48;100.00;101444.16;2099413;28;20258;-64
2023/09/21 02:25:17;;;;;;;3.80;1.63;;;;;;;19.45;100.00;101449.97;2099488;28;20190;-64
2023/09/21 02:26:19;;;;;;;2.30;1.60;;;;;;;19.50;100.00;101452.13;2106288;28;20671;-64
2023/09/21 02:27:19;;;;;;;3.37;1.63;;;;;;;19.48;100.00;101449.78;2107729;28;20937;-64
2023/09/21 02:28:23;;;;;;;2.77;1.80;;;;;;;18.94;100.00;101367.66;2107688;28;20872;-64
2023/09/21 02:29:24;;;;;;;3.97;1.63;;;;;;;19.48;100.00;101449.78;2107876;28;20171;-64
2023/09/21 02:30:25;;;;;;;3.43;1.47;;;;;;;19.47;100.00;101456.66;2107749;28;20433;-64
2023/09/21 02:31:26;;;;;;;4.00;1.80;;;;;;;19.11;100.00;101385.69;2107657;28;20171;-64
2023/09/21 02:32:27;;;;;;;3.17;1.37;;;;;;;19.02;100.00;101368.84;2107758;28;20448;-64
2023/09/21 02:33:29;;;;;;;2.60;1.23;;;;;;;19.49;100.00;101440.09;2107418;28;20472;-64
2023/09/21 02:34:30;;;;;;;1.77;1.20;;;;;;;19.51;100.00;101439.63;2107751;28;20156;-64
2023/09/21 02:35:33;;;;;;;6.50;1.80;;;;;;;19.51;100.00;101448.06;2107676;28;20417;-64
2023/09/21 02:36:33;;;;;;;3.20;1.60;;;;;;;19.51;100.00;101445.25;2107718;28;20398;-64
2023/09/21 02:37:37;;;;;;;2.50;1.60;;;;;;;19.51;100.00;101448.06;2107708;28;20469;-64
2023/09/21 02:38:38;;;;;;;3.20;1.60;;;;;;;19.50;100.00;101449.31;2107633;28;20648;-64
2023/09/21 02:39:39;;;;;;;2.77;1.50;;;;;;;19.52;100.00;101458.84;2107631;28;20417;-64
2023/09/21 02:40:45;;;;;;;2.60;1.57;;;;;;;19.46;100.00;101445.88;2107692;28;20909;-64
2023/09/21 02:41:45;;;;;;;3.97;1.53;;;;;;;19.48;100.00;101441.34;2107732;28;20162;-64
2023/09/21 02:42:48;;;;;;;2.10;1.57;;;;;;;19.49;100.00;101445.72;2107735;28;20445;-64
2023/09/21 02:43:49;;;;;;;2.03;1.50;;;;;;;19.32;100.00;101436.09;2107771;28;20168;-64
2023/09/21 02:44:50;;;;;;;3.60;1.80;;;;;;;19.51;100.00;101460.09;2107561;28;20463;-64
2023/09/21 02:45:50;;;;;;;3.50;1.73;;;;;;;19.53;100.00;101463.19;2107633;28;20673;-64
2023/09/21 02:46:51;;;;;;;3.67;2.17;;;;;;;19.53;100.00;101453.97;2107607;28;20173;-64
2023/09/21 02:47:54;;;;;;;3.90;1.53;;;;;;;19.52;100.00;101452.41;2098865;28;20192;-64
2023/09/21 02:48:55;;;;;;;3.73;1.60;;;;;;;19.52;100.00;101458.84;2105322;28;20187;-64
2023/09/21 02:49:55;;;;;;;3.03;1.70;;;;;;;19.50;100.00;101458.50;2099144;28;20512;-64
2023/09/21 02:50:55;;;;;;;2.30;1.40;;;;;;;19.56;100.00;101469.91;2099277;28;20174;-64
2023/09/21 02:51:56;;;;;;;3.23;1.50;;;;;;;19.58;100.00;101467.38;2102029;28;20186;-64
2023/09/21 02:52:57;;;;;;;4.77;1.67;;;;;;;19.58;100.00;101471.00;2107577;28;20167;-64
2023/09/21 02:53:59;;;;;;;3.23;1.57;;;;;;;19.60;100.00;101474.09;2107534;28;20201;-64
2023/09/21 02:55:00;;;;;;;3.43;1.60;;;;;;;19.62;100.00;101476.44;2107604;28;20173;-64
2023/09/21 02:56:03;;;;;;;2.60;1.50;;;;;;;19.61;100.00;101481.31;2107358;28;20926;-64
2023/09/21 02:57:05;;;;;;;4.10;1.60;;;;;;;19.62;100.00;101474.41;2107422;28;20691;-64
2023/09/21 02:58:10;;;;;;;2.37;1.60;;;;;;;19.65;100.00;101481.88;2106754;28;20437;-64
2023/09/21 02:59:13;;;;;;;2.30;1.43;;;;;;;19.65;100.00;101481.13;2106876;28;20895;-64
2023/09/21 03:00:26;;;;;;;2.90;1.67;;;;;;;19.66;100.00;101477.06;2107451;28;20933;-64
2023/09/21 03:01:26;;;;;;;2.33;1.40;;;;;;;19.66;100.00;101479.88;2106791;28;20429;-64
2023/09/21 03:02:29;;;;;;;3.50;1.77;;;;;;;19.63;100.00;101481.59;2106918;28;20411;-64
2023/09/21 03:03:30;;;;;;;2.93;1.60;;;;;;;19.58;100.00;101485.06;2107512;28;20171;-64
2023/09/21 03:04:32;;;;;;;3.33;1.80;;;;;;;19.46;100.00;101477.59;2107532;28;20499;-64
2023/09/21 03:05:34;;;;;;;2.10;1.37;;;;;;;19.44;100.00;101476.50;2107487;28;20178;-64
2023/09/21 03:06:35;;;;;;;3.13;1.33;;;;;;;19.44;100.00;101476.50;2106734;28;20421;-64
2023/09/21 03:07:38;;;;;;;4.80;1.63;;;;;;;19.45;100.00;101475.25;2106711;28;20404;-64
2023/09/21 03:08:39;;;;;;;3.37;1.77;;;;;;;19.19;100.00;101435.47;2107339;28;20476;-63
2023/09/21 03:09:39;;;;;;;3.27;1.80;;;;;;;19.48;100.00;101479.91;2107362;28;20417;-64
2023/09/21 03:10:41;;;;;;;3.27;1.57;;;;;;;19.51;100.00;101478.97;2107330;28;20167;-64
2023/09/21 03:11:42;;;;;;;4.20;1.80;;;;;;;19.49;100.00;101479.44;2107360;28;20171;-64
2023/09/21 03:12:43;;;;;;;3.37;1.50;;;;;;;19.51;100.00;101479.78;2107559;28;20405;-64
2023/09/21 03:13:45;;;;;;;5.47;1.90;;;;;;;19.50;100.00;101489.44;2107423;28;20202;-64
2023/09/21 03:14:46;;;;;;;4.67;2.20;;;;;;;19.50;100.00;101489.44;2107187;28;20734;-64
2023/09/21 03:15:53;;;;;;;3.80;1.80;;;;;;;19.50;100.00;101485.84;2107245;28;20427;-64
2023/09/21 03:16:54;;;;;;;3.23;1.73;;;;;;;19.41;100.00;101481.06;2107443;28;20465;-64
2023/09/21 03:17:54;;;;;;;3.27;1.77;;;;;;;19.50;100.00;101485.84;2107456;28;20470;-64
2023/09/21 03:18:55;;;;;;;3.40;2.03;;;;;;;19.50;100.00;101491.47;2107335;28;20449;-64
2023/09/21 03:19:56;;;;;;;2.60;1.43;;;;;;;19.46;100.00;101488.84;2107214;28;20167;-64
2023/09/21 03:20:57;;;;;;;2.63;1.43;;;;;;;19.42;100.00;101471.34;2107319;28;20175;-64
2023/09/21 03:21:57;;;;;;;2.57;1.73;;;;;;;19.38;100.00;101490.41;2107394;28;20413;-64
2023/09/21 03:23:01;;;;;;;3.20;1.70;;;;;;;19.37;100.00;101496.50;2107076;28;20190;-64
2023/09/21 03:24:02;;;;;;;3.93;1.33;;;;;;;19.39;100.00;101488.41;2107345;28;20178;-64
2023/09/21 03:25:05;;;;;;;3.57;1.60;;;;;;;19.39;100.00;101483.53;2107159;28;20471;-64
2023/09/21 03:26:05;;;;;;;2.77;1.70;;;;;;;19.40;100.00;101484.31;2107253;28;20414;-64
2023/09/21 03:27:06;;;;;;;2.27;1.40;;;;;;;19.41;100.00;101480.25;2106249;28;20933;-64
2023/09/21 03:28:12;;;;;;;2.60;1.70;;;;;;;19.40;100.00;101487.13;2098927;28;20172;-64
2023/09/21 03:29:13;;;;;;;2.80;1.80;;;;;;;19.40;100.00;101479.47;2098997;28;20895;-64
2023/09/21 03:30:13;;;;;;;2.40;1.40;;;;;;;19.43;100.00;101488.97;2098959;28;20927;-64
2023/09/21 03:31:15;;;;;;;2.10;1.50;;;;;;;19.43;100.00;101477.75;2098769;28;20649;-64
2023/09/21 03:32:17;;;;;;;2.70;1.50;;;;;;;19.14;100.00;101447.34;2098863;28;20172;-64
2023/09/21 03:33:20;;;;;;;2.93;1.40;;;;;;;19.40;100.00;101487.91;2098269;28;20470;-64
2023/09/21 03:34:20;;;;;;;5.30;1.80;;;;;;;19.41;100.00;101483.84;2102755;28;20416;-64
2023/09/21 03:35:24;;;;;;;3.97;1.63;;;;;;;19.44;100.00;101482.13;2107113;28;20413;-64
2023/09/21 03:36:24;;;;;;;2.80;1.77;;;;;;;19.45;100.00;101492.88;2107150;28;20163;-64
2023/09/21 03:37:26;;;;;;;3.17;1.83;;;;;;;19.48;100.00;101474.28;2107191;28;20531;-64
2023/09/21 03:38:27;;;;;;;4.63;1.67;;;;;;;19.49;100.00;101489.94;2107149;28;20189;-64
2023/09/21 03:39:28;;;;;;;3.40;1.70;;;;;;;19.44;100.00;101473.69;2107239;28;20404;-64
2023/09/21 03:40:30;;;;;;;3.23;1.83;;;;;;;19.47;100.00;101483.97;2107220;28;20409;-64
2023/09/21 03:41:30;;;;;;;5.20;1.70;;;;;;;19.44;100.00;101485.72;2107099;28;20186;-64
2023/09/21 03:42:32;;;;;;;3.43;1.97;;;;;;;19.48;100.00;101485.53;2107244;28;20440;-64
2023/09/21 03:43:33;;;;;;;2.67;1.50;;;;;;;19.50;100.00;101488.66;2103071;28;20653;-64
2023/09/21 03:44:33;;;;;;;2.97;1.70;;;;;;;19.51;100.00;101484.59;2098731;28;20505;-64
2023/09/21 03:45:34;;;;;;;2.17;1.43;;;;;;;19.51;100.00;101491.00;2098801;28;20184;-64
2023/09/21 03:46:35;;;;;;;2.20;1.40;;;;;;;19.55;100.00;101482.41;2098770;28;20164;-64
2023/09/21 03:47:36;;;;;;;2.97;1.60;;;;;;;19.57;100.00;101486.31;2098628;28;20688;-64
2023/09/21 03:48:37;;;;;;;2.47;1.67;;;;;;;19.60;100.00;101476.91;2098867;28;20775;-64
2023/09/21 03:49:38;;;;;;;3.60;1.60;;;;;;;19.61;100.00;101481.31;2105563;28;20190;-64
2023/09/21 03:50:40;;;;;;;2.80;1.90;;;;;;;19.61;100.00;101478.50;2107073;28;20420;-64
2023/09/21 03:51:40;;;;;;;3.80;1.50;;;;;;;19.62;100.00;101479.25;2107241;28;20177;-64
2023/09/21 03:52:44;;;;;;;5.17;1.80;;;;;;;19.62;100.00;101473.63;2107051;28;20416;-64
2023/09/21 03:53:44;;;;;;;2.10;1.67;;;;;;;19.65;100.00;101475.50;2103102;28;20347;-68
2023/09/21 03:54:48;;;;;;;4.17;1.83;;;;;;;19.67;100.00;101473.00;2098404;28;21121;-62
2023/09/21 03:55:49;;;;;;;2.07;1.53;;;;;;;19.70;100.00;101469.25;2104333;28;20646;-65
2023/09/21 03:56:50;;;;;;;2.77;1.70;;;;;;;19.71;100.00;101479.22;2104269;28;20429;-68
2023/09/21 03:57:51;;;;;;;1.50;0.97;;;;;;;19.93;100.00;101477.72;2105494;28;20433;-65
2023/09/21 03:58:52;;;;;;;1.27;0.87;;;;;;;20.21;100.00;101478.41;2098340;28;20475;-63
2023/09/21 03:59:55;;;;;;;1.20;0.70;;;;;;;20.50;100.00;101473.66;2097620;28;20716;-64
2023/09/21 04:00:57;;;;;;;1.20;0.87;;;;;;;20.95;100.00;101480.97;2097001;28;20226;-63
2023/09/21 04:01:57;;;;;;;2.20;0.87;;;;;;;20.83;100.00;101408.75;2104320;28;20495;-63
2023/09/21 04:02:59;;;;;;;1.80;1.07;;;;;;;20.99;100.00;101380.91;2102415;28;20449;-61
2023/09/21 04:04:13;;;;;;;1.80;0.87;;;;;;;21.79;100.00;101470.69;2098971;28;20179;-64
2023/09/21 04:05:20;;;;;;;3.10;1.10;;;;;;;21.92;100.00;101463.47;2096918;28;20429;-64
2023/09/21 04:06:20;;;;;;;5.30;1.23;;;;;;;22.08;100.00;101468.59;2097704;28;20792;-65
2023/09/21 04:07:21;;;;;;;2.90;1.20;;;;;;;22.22;100.00;101476.22;2104167;28;20515;-65
2023/09/21 04:08:21;;;;;;;2.00;1.23;;;;;;;22.38;100.00;101469.25;2097355;28;20293;-62
2023/09/21 04:09:22;;;;;;;4.07;1.20;;;;;;;22.24;100.00;101431.34;2106578;28;20705;-61
2023/09/21 04:10:23;;;;;;;2.53;1.17;;;;;;;22.56;100.00;101460.53;2106361;28;20180;-64
2023/09/21 04:11:25;;;;;;;3.03;1.40;;;;;;;22.74;100.00;101471.53;2105070;28;20201;-64
2023/09/21 04:12:25;;;;;;;1.83;0.97;;;;;;;22.83;100.00;101472.16;2105064;28;20662;-64
2023/09/21 04:13:26;;;;;;;3.03;1.20;;;;;;;22.88;100.00;101474.25;2105309;28;20829;-64
2023/09/21 04:14:27;;;;;;;2.63;1.57;;;;;;;22.93;100.00;101473.53;2102456;28;20219;-63
2023/09/21 04:15:29;;;;;;;2.33;1.53;;;;;;;22.91;100.00;101475.31;2102790;28;20178;-62
2023/09/21 04:16:30;;;;;;;2.93;1.73;;;;;;;22.92;100.00;101474.06;2096606;28;20258;-63
2023/09/21 04:17:31;;;;;;;3.23;1.83;;;;;;;22.94;100.00;101475.13;2105832;28;20178;-63
2023/09/21 04:18:31;;;;;;;2.70;1.80;;;;;;;22.98;100.00;101474.91;2105362;28;20678;-62
2023/09/21 04:19:32;;;;;;;6.97;1.73;;;;;;;22.97;100.00;101474.13;2099272;28;20653;-64
2023/09/21 04:20:34;;;;;;;6.27;2.10;;;;;;;22.86;100.00;101464.72;2096753;28;20187;-64
2023/09/21 04:21:34;;;;;;;4.17;1.90;;;;;;;22.85;100.00;101463.97;2101547;28;20328;-63
2023/09/21 04:22:35;;;;;;;2.47;1.53;;;;;;;22.87;100.00;101466.31;2101581;28;20191;-63
2023/09/21 04:23:35;;;;;;;5.13;1.80;;;;;;;22.86;100.00;101467.56;2097070;28;20175;-63
2023/09/21 04:24:36;;;;;;;2.37;1.57;;;;;;;22.83;100.00;101458.03;2103328;28;20770;-63
2023/09/21 04:25:38;;;;;;;2.67;1.60;;;;;;;22.90;100.00;101470.94;2104422;28;20174;-63
2023/09/21 04:26:39;;;;;;;5.97;1.83;;;;;;;22.92;100.00;101460.69;2096618;28;20199;-63
2023/09/21 04:27:53;;;;;;;3.97;1.63;;;;;;;22.95;100.00;101461.75;2104306;28;20191;-66
2023/09/21 04:28:53;;;;;;;5.03;1.63;;;;;;;22.95;100.00;101453.28;2103503;28;20278;-65
2023/09/21 04:29:54;;;;;;;3.60;2.20;;;;;;;22.99;100.00;101453.84;2097354;28;20187;-66
2023/09/21 04:30:54;;;;;;;3.63;1.70;;;;;;;22.98;100.00;101455.88;2096639;28;20187;-65
2023/09/21 04:31:54;;;;;;;6.37;1.37;;;;;;;23.04;100.00;101456.72;2098895;28;20176;-65
2023/09/21 04:32:57;;;;;;;3.67;1.80;;;;;;;23.12;100.00;101459.88;2101376;28;20195;-65
2023/09/21 04:33:57;;;;;;;2.67;1.63;;;;;;;23.19;100.00;101453.81;2098733;28;20191;-65
2023/09/21 04:34:58;;;;;;;4.87;1.87;;;;;;;23.25;100.00;101463.91;2100879;28;20224;-66
2023/09/21 04:35:58;;;;;;;3.60;1.70;;;;;;;23.24;100.00;101465.16;2096190;28;20199;-65
2023/09/21 04:36:59;;;;;;;3.60;1.70;;;;;;;23.24;100.00;101470.06;2102469;28;20713;-64
2023/09/21 04:37:59;;;;;;;3.20;1.77;;;;;;;23.26;100.00;101461.84;2095397;28;20187;-65
2023/09/21 04:39:00;;;;;;;3.33;1.87;;;;;;;23.32;100.00;101459.84;2100224;28;20662;-64
2023/09/21 04:40:10;;;;;;;7.03;2.37;;;;;;;23.36;100.00;101461.19;2099353;28;20198;-65
2023/09/21 04:41:14;;;;;;;3.20;1.93;;;;;;;23.34;100.00;101458.06;2098147;28;20206;-65
2023/09/21 04:42:15;;;;;;;5.47;2.60;;;;;;;23.31;100.00;101458.28;2100634;28;20223;-65
2023/09/21 04:43:17;;;;;;;2.97;1.90;;;;;;;23.22;100.00;101447.94;2100808;28;20196;-65
2023/09/21 04:44:18;;;;;;;4.60;2.23;;;;;;;23.25;100.00;101446.94;2095318;28;20198;-66